Time;durP1;ratioP1;P1;durP2;ratioP2;P2;SDS_P1;SDS_P2;PMS_P1;PMS_P2;Temp;Humidity;BMP_temperature;BMP_pressure;BME280_temperature;BME280_humidity;BME280_pressure;Samples;Min_cycle;Max_cycle;Signal;HPM_P1;HPM_P2
2022/03/22 00:00:11;;;;;;;;;;;;;;;2.30;43.67;100196.52;1696050;84;20284;-85
2022/03/22 00:02:39;;;;;;;;;;;;;;;2.18;43.77;100195.34;1693658;83;20172;-85
2022/03/22 00:05:05;;;;;;;;;;;;;;;2.14;43.88;100197.50;1694757;83;25929;-85
2022/03/22 00:07:34;;;;;;;;;;;;;;;2.15;43.98;100190.19;1694203;84;24449;-85
2022/03/22 00:10:00;;;;;;;;;;;;;;;2.23;44.09;100188.41;1752196;81;20154;-85
2022/03/22 00:12:27;;;;;;;;;;;;;;;2.34;44.22;100184.88;1767479;80;24792;-85
2022/03/22 00:14:59;;;;;;;;;;;;;;;2.38;44.32;100184.41;1771664;80;21921;-85
2022/03/22 00:17:24;;;;;;;;;;;;;;;2.41;44.41;100185.22;1763209;80;25893;-85
2022/03/22 00:19:50;;;;;;;;;;;;;;;2.35;44.47;100178.81;1773365;80;24410;-85
2022/03/22 00:22:16;;;;;;;;;;;;;;;2.31;44.53;100178.86;1782526;80;20295;-86
2022/03/22 00:24:42;;;;;;;;;;;;;;;2.28;44.60;100177.61;1778287;80;24748;-86
2022/03/22 00:27:08;;;;;;;;;;;;;;;2.30;44.69;100178.00;1781682;80;21959;-85
2022/03/22 00:29:34;;;;;;;;;;;;;;;2.35;44.73;100177.95;1780519;80;25910;-86
2022/03/22 00:32:00;;;;;;;;;;;;;;;2.33;44.84;100179.72;1761379;80;24617;-86
2022/03/22 00:34:26;;;;;;;;;;;;;;;2.30;44.90;100177.14;1761641;80;20310;-85
2022/03/22 00:36:56;;;;;;;;;;;;;;;2.36;45.01;100172.78;1770243;80;24789;-86
2022/03/22 00:39:23;;;;;;;;;;;;;;;2.41;45.09;100168.42;1784902;80;22799;-85
2022/03/22 00:41:49;;;;;;;;;;;;;;;2.52;45.17;100176.94;1776118;80;25975;-85
2022/03/22 00:44:15;;;;;;;;;;;;;;;2.51;45.22;100174.36;1778335;80;24532;-86
2022/03/22 00:46:41;;;;;;;;;;;;;;;2.47;45.26;100175.27;1777607;79;20269;-85
2022/03/22 00:49:07;;;;;;;;;;;;;;;2.39;45.31;100180.52;1764509;80;20268;-85
2022/03/22 00:51:34;;;;;;;;;;;;;;;2.32;45.36;100173.69;1765901;80;21978;-86
2022/03/22 00:54:02;;;;;;;;;;;;;;;2.42;45.45;100174.02;1769021;80;26670;-86
2022/03/22 00:56:29;;;;;;;;;;;;;;;2.52;45.55;100180.81;1760120;80;25564;-86
2022/03/22 01:01:40;;;;;;;;;;;;;;;2.52;45.64;100180.81;1757686;80;24787;-86
2022/03/22 01:04:06;;;;;;;;;;;;;;;2.40;45.69;100185.26;1766642;80;22086;-86
2022/03/22 01:06:33;;;;;;;;;;;;;;;2.24;45.73;100184.94;1762686;80;25929;-86
2022/03/22 01:09:00;;;;;;;;;;;;;;;2.20;45.80;100187.13;1768800;80;24407;-86
2022/03/22 01:11:26;;;;;;;;;;;;;;;2.25;45.86;100182.35;1762796;80;20245;-86
2022/03/22 01:13:52;;;;;;;;;;;;;;;2.25;45.92;100178.91;1766598;80;24779;-85
2022/03/22 01:16:19;;;;;;;;;;;;;;;2.25;46.00;100180.20;1766422;80;22672;-85
2022/03/22 01:18:45;;;;;;;;;;;;;;;2.15;46.04;100186.31;1768723;80;26005;-85
2022/03/22 01:21:12;;;;;;;;;;;;;;;2.02;46.11;100187.69;1768740;80;24478;-85
2022/03/22 01:23:38;;;;;;;;;;;;;;;1.97;46.18;100180.84;1768709;80;21914;-86
2022/03/22 01:26:06;;;;;;;;;;;;;;;1.87;46.26;100185.66;1763393;80;24923;-86
2022/03/22 01:28:32;;;;;;;;;;;;;;;1.78;46.37;100177.98;1764873;80;21982;-85
2022/03/22 01:31:01;;;;;;;;;;;;;;;1.73;46.46;100176.73;1759754;80;26066;-85
2022/03/22 01:33:27;;;;;;;;;;;;;;;1.87;46.60;100183.93;1765281;80;24678;-86
2022/03/22 01:35:53;;;;;;;;;;;;;;;1.98;46.74;100186.01;1766825;80;20161;-85
2022/03/22 01:38:22;;;;;;;;;;;;;;;2.05;46.84;100184.24;1762951;80;20696;-84
2022/03/22 01:40:47;;;;;;;;;;;;;;;2.17;46.96;100184.59;1762233;80;21969;-84
2022/03/22 01:43:13;;;;;;;;;;;;;;;2.24;47.07;100184.94;1766760;80;21621;-85
2022/03/22 01:45:44;;;;;;;;;;;;;;;2.28;47.13;100184.06;1769092;80;24392;-86
2022/03/22 01:48:07;;;;;;;;;;;;;;;2.33;47.19;100181.87;1758721;80;20286;-85
2022/03/22 01:50:37;;;;;;;;;;;;;;;2.33;47.22;100183.16;1758058;81;24762;-85
2022/03/22 01:53:06;;;;;;;;;;;;;;;2.32;47.26;100181.88;1758197;81;21882;-85
2022/03/22 01:55:32;;;;;;;;;;;;;;;2.33;47.31;100182.30;1737490;81;26388;-84
2022/03/22 01:57:59;;;;;;;;;;;;;;;2.34;47.35;100177.56;1760448;79;24507;-85
2022/03/22 02:00:25;;;;;;;;;;;;;;;2.31;47.40;100173.26;1742886;80;20517;-85
2022/03/22 02:08:20;;;;;;;;;;;;;;;2.00;47.41;100165.34;1737937;80;21148;-85
2022/03/22 02:10:47;;;;;;;;;;;;;;;1.88;47.44;100168.02;1768696;80;24524;-85
2022/03/22 02:13:13;;;;;;;;;;;;;;;1.90;47.48;100162.42;1763807;80;20224;-84
2022/03/22 02:15:41;;;;;;;;;;;;;;;1.97;47.57;100170.52;1773032;80;24770;-85
2022/03/22 02:18:07;;;;;;;;;;;;;;;2.02;47.64;100176.07;1771028;80;22022;-85
2022/03/22 02:20:33;;;;;;;;;;;;;;;2.10;47.73;100173.01;1768048;80;26023;-86
2022/03/22 02:23:01;;;;;;;;;;;;;;;2.06;47.76;100174.34;1771958;80;24690;-84
2022/03/22 02:25:27;;;;;;;;;;;;;;;1.97;47.80;100177.83;1768462;79;20205;-85
2022/03/22 02:27:53;;;;;;;;;;;;;;;1.93;47.86;100178.73;1757341;81;20767;-85
2022/03/22 02:30:20;;;;;;;;;;;;;;;1.92;47.93;100179.59;1769137;80;22032;-85
2022/03/22 02:32:55;;;;;;;;;;;;;;;1.94;47.98;100176.58;1770189;80;26200;-86
2022/03/22 02:35:22;;;;;;;;;;;;;;;2.03;48.05;100183.39;1769921;79;24446;-85
2022/03/22 02:37:48;;;;;;;;;;;;;;;2.17;48.16;100180.72;1764837;80;20209;-85
2022/03/22 02:40:15;;;;;;;;;;;;;;;2.18;48.23;100178.55;1766513;80;24761;-86
2022/03/22 02:42:42;;;;;;;;;;;;;;;2.19;48.26;100176.37;1768230;80;21935;-85
2022/03/22 02:45:08;;;;;;;;;;;;;;;2.27;48.31;100178.04;1769767;80;26008;-86
2022/03/22 02:47:34;;;;;;;;;;;;;;;2.35;48.35;100179.25;1766089;80;24392;-86
2022/03/22 02:50:00;;;;;;;;;;;;;;;2.43;48.39;100182.20;1766013;81;20177;-85
2022/03/22 02:52:27;;;;;;;;;;;;;;;2.42;48.39;100180.91;1765804;81;24763;-86
2022/03/22 02:54:53;;;;;;;;;;;;;;;2.43;48.42;100184.78;1771527;79;22048;-85
2022/03/22 02:57:19;;;;;;;;;;;;;;;2.48;48.43;100174.40;1768251;79;25989;-85
2022/03/22 02:59:47;;;;;;;;;;;;;;;2.41;48.43;100173.59;1748731;80;25171;-86
2022/03/22 03:02:14;;;;;;;;;;;;;;;2.31;48.42;100176.27;1768081;80;20223;-84
2022/03/22 03:04:40;;;;;;;;;;;;;;;2.29;48.46;100188.37;1772354;80;24834;-84
2022/03/22 03:07:06;;;;;;;;;;;;;;;2.23;48.48;100192.29;1768014;79;21855;-85
2022/03/22 03:09:32;;;;;;;;;;;;;;;2.19;48.52;100187.99;1776462;79;26142;-85
2022/03/22 03:11:59;;;;;;;;;;;;;;;2.14;48.56;100184.16;1773210;79;25252;-85
2022/03/22 03:14:38;;;;;;;;;;;;;;;2.16;48.59;100184.16;1764880;80;20245;-85
2022/03/22 03:17:05;;;;;;;;;;;;;;;2.12;48.64;100187.21;1775227;80;24858;-85
2022/03/22 03:19:31;;;;;;;;;;;;;;;2.12;48.69;100192.80;1753076;80;21942;-85
2022/03/22 03:21:58;;;;;;;;;;;;;;;2.05;48.73;100188.97;1777303;80;26008;-84
2022/03/22 03:24:24;;;;;;;;;;;;;;;1.99;48.77;100190.31;1775083;80;24558;-85
2022/03/22 03:26:50;;;;;;;;;;;;;;;1.93;48.81;100188.20;1773507;80;20163;-84
2022/03/22 03:29:16;;;;;;;;;;;;;;;1.95;48.89;100190.34;1767886;80;24837;-85
2022/03/22 03:31:42;;;;;;;;;;;;;;;1.95;48.95;100192.50;1775199;79;20884;-85
2022/03/22 03:34:09;;;;;;;;;;;;;;;1.93;49.02;100189.48;1776607;79;25930;-85
2022/03/22 03:36:37;;;;;;;;;;;;;;;1.93;49.08;100195.94;1768363;79;24438;-85
2022/03/22 03:39:04;;;;;;;;;;;;;;;1.94;49.17;100197.23;1772858;79;20292;-85
2022/03/22 03:47:05;;;;;;;;;;;;;;;2.09;49.43;100200.13;1783390;79;26012;-85
2022/03/22 03:49:33;;;;;;;;;;;;;;;2.18;49.49;100204.38;1775544;79;24524;-84
2022/03/22 03:52:03;;;;;;;;;;;;;;;2.15;49.53;100201.80;1761271;80;20172;-85
2022/03/22 03:54:28;;;;;;;;;;;;;;;2.13;49.56;100208.27;1752222;81;24800;-85
2022/03/22 03:56:54;;;;;;;;;;;;;;;2.10;49.58;100208.30;1754240;81;21978;-86
2022/03/22 03:59:20;;;;;;;;;;;;;;;2.09;49.64;100204.00;1783613;80;21084;-86
2022/03/22 04:01:47;;;;;;;;;;;;;;;2.06;49.69;100206.19;1775518;80;24223;-86
2022/03/22 04:04:13;;;;;;;;;;;;;;;2.00;49.75;100198.48;1754851;80;20213;-86
2022/03/22 04:06:41;;;;;;;;;;;;;;;2.01;49.78;100196.76;1774824;79;20209;-86
2022/03/22 04:09:07;;;;;;;;;;;;;;;2.10;49.87;100198.83;1707105;82;22142;-85
2022/03/22 04:11:33;;;;;;;;;;;;;;;2.18;49.96;100200.51;1691970;83;25986;-85
2022/03/22 04:14:00;;;;;;;;;;;;;;;2.18;50.00;100196.64;1728685;82;25046;-85
2022/03/22 04:16:27;;;;;;;;;;;;;;;2.21;50.02;100197.89;1715075;82;20164;-85
2022/03/22 04:18:53;;;;;;;;;;;;;;;2.25;50.08;100202.16;1736595;82;24917;-85
2022/03/22 04:21:20;;;;;;;;;;;;;;;2.29;50.11;100213.73;1726866;82;22724;-85
2022/03/22 04:23:46;;;;;;;;;;;;;;;2.33;50.15;100214.59;1732646;82;26111;-85
2022/03/22 04:26:12;;;;;;;;;;;;;;;2.34;50.18;100207.27;1685106;82;24640;-85
2022/03/22 04:34:07;;;;;;;;;;;;;;;2.50;50.26;100204.97;1731508;82;22249;-85
2022/03/22 04:36:35;;;;;;;;;;;;;;;2.55;50.30;100201.91;1721501;81;26074;-86
2022/03/22 04:39:01;;;;;;;;;;;;;;;2.59;50.32;100204.02;1777873;80;24508;-86
2022/03/22 04:41:27;;;;;;;;;;;;;;;2.62;50.33;100212.59;1771170;80;20223;-86
2022/03/22 04:43:53;;;;;;;;;;;;;;;2.64;50.33;100208.27;1778054;80;24988;-86
2022/03/22 04:46:19;;;;;;;;;;;;;;;2.65;50.36;100207.84;1774387;80;21965;-86
2022/03/22 04:48:45;;;;;;;;;;;;;;;2.64;50.37;100211.29;1750693;80;25947;-86
2022/03/22 04:56:43;;;;;;;;;;;;;;;2.67;50.35;100205.67;1723830;83;24935;-84
2022/03/22 04:59:10;;;;;;;;;;;;;;;2.71;50.36;100213.81;1724219;81;21994;-85
2022/03/22 05:01:36;;;;;;;;;;;;;;;2.71;50.36;100207.78;1706535;83;26015;-86
2022/03/22 05:04:02;;;;;;;;;;;;;;;2.71;50.35;100216.83;1722184;82;24511;-85
2022/03/22 05:06:28;;;;;;;;;;;;;;;2.73;50.36;100221.09;1725742;81;20244;-84
2022/03/22 05:08:54;;;;;;;;;;;;;;;2.76;50.39;100221.09;1727265;82;24814;-85
2022/03/22 05:11:21;;;;;;;;;;;;;;;2.66;50.37;100220.75;1727581;81;22042;-85
2022/03/22 05:13:47;;;;;;;;;;;;;;;2.58;50.39;100219.09;1723745;82;25984;-85
2022/03/22 05:16:14;;;;;;;;;;;;;;;2.53;50.40;100221.73;1728264;82;24485;-85
2022/03/22 05:18:42;;;;;;;;;;;;;;;2.62;50.48;100221.62;1724451;82;20192;-86
2022/03/22 05:21:08;;;;;;;;;;;;;;;2.73;50.57;100226.27;1730541;81;24987;-85
2022/03/22 05:23:34;;;;;;;;;;;;;;;2.69;50.60;100224.59;1728106;81;22036;-85
2022/03/22 05:26:01;;;;;;;;;;;;;;;2.69;50.63;100224.59;1722772;81;25984;-85
2022/03/22 05:28:27;;;;;;;;;;;;;;;2.73;50.67;100230.14;1727786;81;24473;-85
2022/03/22 05:30:54;;;;;;;;;;;;;;;2.81;50.73;100230.08;1729403;82;20153;-85
2022/03/22 05:33:20;;;;;;;;;;;;;;;2.83;50.78;100230.94;1730853;81;25005;-85
2022/03/22 05:35:46;;;;;;;;;;;;;;;2.86;50.83;100231.75;1729995;82;21899;-85
2022/03/22 05:38:12;;;;;;;;;;;;;;;3.00;50.94;100231.59;1666252;84;26376;-86
2022/03/22 05:40:39;;;;;;;;;;;;;;;3.08;51.03;100234.11;1667567;85;24468;-85
2022/03/22 05:43:06;;;;;;;;;;;;;;;3.13;51.14;100235.77;1669380;85;20483;-85
2022/03/22 05:45:32;;;;;;;;;;;;;;;3.13;51.20;100237.06;1727409;82;24828;-86
2022/03/22 05:48:01;;;;;;;;;;;;;;;2.98;51.17;100235.95;1731056;81;21994;-85
2022/03/22 05:50:27;;;;;;;;;;;;;;;2.90;51.12;100236.44;1724713;82;26652;-85
2022/03/22 05:52:54;;;;;;;;;;;;;;;2.92;51.19;100239.88;1702127;83;24497;-85
2022/03/22 05:55:20;;;;;;;;;;;;;;;2.97;51.24;100243.71;1699537;83;20293;-85
2022/03/22 05:57:47;;;;;;;;;;;;;;;3.06;51.30;100243.17;1706538;83;25598;-85
2022/03/22 06:00:18;;;;;;;;;;;;;;;3.28;51.45;100247.23;1763532;80;22025;-86
2022/03/22 06:02:44;;;;;;;;;;;;;;;3.38;51.55;100238.48;1762263;80;26008;-86
2022/03/22 06:05:11;;;;;;;;;;;;;;;3.52;51.69;100240.92;1765575;80;24540;-85
2022/03/22 06:07:39;;;;;;;;;;;;;;;3.72;51.82;100244.10;1761595;80;20151;-86
2022/03/22 06:10:05;;;;;;;;;;;;;;;3.82;51.89;100244.83;1767191;80;24877;-86
2022/03/22 06:12:39;;;;;;;;;;;;;;;3.92;51.96;100247.73;1758003;80;21970;-86
2022/03/22 06:15:15;;;;;;;;;;;;;;;4.01;52.00;100241.55;1767786;79;26917;-86
2022/03/22 06:17:49;;;;;;;;;;;;;;;4.16;52.10;100238.30;1777405;80;24499;-86
2022/03/22 06:20:16;;;;;;;;;;;;;;;4.38;52.14;100241.84;1769483;80;20259;-86
2022/03/22 06:22:49;;;;;;;;;;;;;;;4.45;52.14;100244.33;1764033;80;25421;-86
2022/03/22 06:25:19;;;;;;;;;;;;;;;4.53;52.12;100242.89;1763962;80;22853;-85
2022/03/22 06:27:46;;;;;;;;;;;;;;;4.53;52.09;100245.05;1771664;80;26007;-86
2022/03/22 06:30:15;;;;;;;;;;;;;;;4.62;52.05;100241.46;1768744;80;23974;-86
2022/03/22 06:32:57;;;;;;;;;;;;;;;4.69;52.02;100245.64;1770444;80;20204;-86
2022/03/22 06:35:24;;;;;;;;;;;;;;;4.78;52.02;100248.09;1767288;80;24822;-86
2022/03/22 06:37:57;;;;;;;;;;;;;;;4.81;52.01;100239.39;1762920;80;21887;-87
2022/03/22 06:40:28;;;;;;;;;;;;;;;4.88;52.04;100249.64;1765180;80;25915;-85
2022/03/22 06:42:55;;;;;;;;;;;;;;;4.91;52.05;100246.98;1751743;80;24392;-86
2022/03/22 06:45:21;;;;;;;;;;;;;;;4.93;52.04;100244.36;1766796;80;20242;-85
2022/03/22 06:47:48;;;;;;;;;;;;;;;5.03;52.07;100244.16;1766473;80;24813;-85
2022/03/22 06:50:15;;;;;;;;;;;;;;;5.18;52.09;100238.30;1775774;79;21713;-84
2022/03/22 06:52:42;;;;;;;;;;;;;;;5.31;52.13;100236.71;1749901;79;25695;-84
2022/03/22 06:55:09;;;;;;;;;;;;;;;5.38;52.10;100231.82;1782591;79;25296;-86
2022/03/22 06:57:35;;;;;;;;;;;;;;;5.50;52.11;100236.35;1773466;79;20571;-86
2022/03/22 07:00:04;;;;;;;;;;;;;;;5.58;52.10;100242.23;1761272;79;24988;-85
2022/03/22 07:02:31;;;;;;;;;;;;;;;5.71;52.14;100247.59;1779987;79;22054;-86
2022/03/22 07:04:57;;;;;;;;;;;;;;;5.79;52.11;100243.07;1766537;79;26058;-86
2022/03/22 07:07:24;;;;;;;;;;;;;;;5.92;52.13;100244.56;1773560;79;24601;-86
2022/03/22 07:09:50;;;;;;;;;;;;;;;6.00;52.13;100241.33;1779183;79;20246;-85
2022/03/22 07:12:16;;;;;;;;;;;;;;;6.00;52.09;100245.23;1770572;79;20780;-85
2022/03/22 07:14:45;;;;;;;;;;;;;;;6.06;52.09;100249.44;1779824;79;22227;-85
2022/03/22 07:17:11;;;;;;;;;;;;;;;6.22;52.15;100252.95;1771626;79;25947;-85
2022/03/22 07:19:38;;;;;;;;;;;;;;;6.29;52.15;100254.53;1776112;79;20899;-85
2022/03/22 07:22:05;;;;;;;;;;;;;;;6.24;52.08;100247.72;1729019;82;20219;-84
2022/03/22 07:24:32;;;;;;;;;;;;;;;6.15;51.91;100257.91;1726166;82;24779;-85
2022/03/22 07:26:59;;;;;;;;;;;;;;;6.11;51.84;100257.54;1720210;82;22071;-84
2022/03/22 07:29:25;;;;;;;;;;;;;;;6.01;51.68;100263.84;1746386;81;26232;-85
2022/03/22 07:31:51;;;;;;;;;;;;;;;5.98;51.60;100257.86;1746477;81;24452;-85
2022/03/22 07:34:17;;;;;;;;;;;;;;;5.99;51.60;100260.44;1741144;81;20657;-84
2022/03/22 07:36:44;;;;;;;;;;;;;;;6.02;51.59;100268.15;1745114;81;24801;-84
2022/03/22 07:39:11;;;;;;;;;;;;;;;6.09;51.61;100259.78;1738351;81;22059;-85
2022/03/22 07:41:38;;;;;;;;;;;;;;;6.16;51.66;100263.96;1748031;81;25951;-84
2022/03/22 07:44:04;;;;;;;;;;;;;;;6.27;51.73;100264.09;1744051;81;24593;-85
2022/03/22 07:46:31;;;;;;;;;;;;;;;6.41;51.86;100266.83;1746036;81;20479;-84
2022/03/22 07:52:57;;;;;;;;;;;;;;;6.57;51.94;100272.07;1746826;81;24780;-84
2022/03/22 07:54:09;;;;;;;;;;;;;;;6.85;52.12;100270.95;1736155;81;26285;-85
2022/03/22 07:56:37;;;;;;;;;;;;;;;7.00;52.24;100261.44;1738234;81;25248;-85
2022/03/22 07:59:03;;;;;;;;;;;;;;;7.09;52.28;100269.85;1738830;81;20531;-84
2022/03/22 08:01:29;;;;;;;;;;;;;;;7.11;52.21;100273.28;1703321;83;24710;-85
2022/03/22 08:03:55;;;;;;;;;;;;;;;7.20;52.21;100267.44;1698824;83;22737;-84
2022/03/22 08:06:21;;;;;;;;;;;;;;;7.32;52.23;100264.48;1715572;82;21029;-85
2022/03/22 08:08:47;;;;;;;;;;;;;;;7.40;52.19;100263.84;1710163;83;24400;-85
2022/03/22 08:11:13;;;;;;;;;;;;;;;7.47;52.16;100263.60;1708337;83;20532;-85
2022/03/22 08:13:39;;;;;;;;;;;;;;;7.57;52.15;100266.83;1718089;83;24752;-85
2022/03/22 08:16:06;;;;;;;;;;;;;;;7.67;52.14;100264.80;1715740;83;22063;-85
2022/03/22 08:18:32;;;;;;;;;;;;;;;7.69;52.02;100266.93;1709630;83;26034;-85
2022/03/22 08:20:58;;;;;;;;;;;;;;;7.72;51.95;100263.77;1714477;83;24402;-85
2022/03/22 08:23:25;;;;;;;;;;;;;;;7.76;51.83;100257.56;1710084;83;20311;-87
2022/03/22 08:25:52;;;;;;;;;;;;;;;7.81;51.74;100258.73;1712146;82;20200;-85
2022/03/22 08:28:19;;;;;;;;;;;;;;;7.86;51.65;100257.70;1702134;83;20300;-84
2022/03/22 08:30:45;;;;;;;;;;;;;;;7.96;51.59;100254.39;1710288;83;26040;-85
2022/03/22 08:33:11;;;;;;;;;;;;;;;8.05;51.53;100261.06;1707972;83;24391;-85
2022/03/22 08:35:45;;;;;;;;;;;;;;;8.11;51.39;100259.13;1707850;83;20312;-86
2022/03/22 08:38:11;;;;;;;;;;;;;;;8.18;51.29;100254.11;1719975;82;24779;-85
2022/03/22 08:40:37;;;;;;;;;;;;;;;8.25;51.15;100257.38;1722848;82;21922;-85
2022/03/22 08:43:06;;;;;;;;;;;;;;;8.33;51.04;100265.88;1736961;82;25966;-85
2022/03/22 08:45:32;;;;;;;;;;;;;;;8.42;50.97;100258.19;1738184;82;24457;-85
2022/03/22 08:48:01;;;;;;;;;;;;;;;8.50;50.86;100249.68;1731576;82;20239;-86
2022/03/22 08:50:27;;;;;;;;;;;;;;;8.59;50.80;100256.75;1731004;82;24759;-86
2022/03/22 08:52:56;;;;;;;;;;;;;;;8.69;50.68;100256.84;1722515;82;22086;-86
2022/03/22 08:55:25;;;;;;;;;;;;;;;8.77;50.60;100254.00;1714638;82;25971;-86
2022/03/22 08:57:52;;;;;;;;;;;;;;;8.89;50.48;100254.04;1731737;82;24445;-86
2022/03/22 09:00:19;;;;;;;;;;;;;;;8.96;50.39;100254.20;1706458;83;20309;-86
2022/03/22 09:02:46;;;;;;;;;;;;;;;9.03;50.27;100251.34;1705648;83;24744;-86
2022/03/22 09:08:00;;;;;;;;;;;;;;;9.18;49.94;100249.50;1724113;82;26772;-86
2022/03/22 09:10:26;;;;;;;;;;;;;;;9.29;49.85;100248.27;1720839;82;24678;-86
2022/03/22 09:12:52;;;;;;;;;;;;;;;9.39;49.70;100247.88;1723499;82;20192;-86
2022/03/22 09:15:24;;;;;;;;;;;;;;;9.43;49.45;100245.58;1713801;82;24715;-85
2022/03/22 09:17:47;;;;;;;;;;;;;;;9.51;49.23;100243.52;1722036;82;21931;-85
2022/03/22 09:20:13;;;;;;;;;;;;;;;9.59;49.04;100244.11;1720853;82;25980;-85
2022/03/22 09:22:42;;;;;;;;;;;;;;;9.68;48.79;100238.12;1721223;82;24618;-85
2022/03/22 09:25:10;;;;;;;;;;;;;;;9.76;48.67;100242.17;1726373;82;20168;-85
2022/03/22 09:27:41;;;;;;;;;;;;;;;9.85;48.40;100236.58;1718177;82;25736;-85
2022/03/22 09:30:08;;;;;;;;;;;;;;;9.92;48.10;100234.14;1722774;81;22048;-85
2022/03/22 09:32:35;;;;;;;;;;;;;;;10.00;47.82;100234.68;1724187;82;25992;-85
2022/03/22 09:35:01;;;;;;;;;;;;;;;10.07;47.58;100233.54;1720175;82;24436;-85
2022/03/22 09:37:27;;;;;;;;;;;;;;;10.14;47.30;100230.23;1722951;82;20289;-85
2022/03/22 09:39:54;;;;;;;;;;;;;;;10.19;47.04;100233.55;1722485;82;24728;-85
2022/03/22 09:42:20;;;;;;;;;;;;;;;10.29;46.81;100228.34;1718812;82;22090;-85
2022/03/22 09:44:50;;;;;;;;;;;;;;;10.35;46.59;100230.72;1732724;82;26071;-85
2022/03/22 09:47:16;;;;;;;;;;;;;;;10.43;46.42;100223.39;1723598;82;24563;-85
2022/03/22 09:49:43;;;;;;;;;;;;;;;10.53;46.14;100220.42;1722417;81;20363;-84
2022/03/22 09:52:10;;;;;;;;;;;;;;;10.63;45.95;100223.90;1731259;82;24832;-84
2022/03/22 09:54:37;;;;;;;;;;;;;;;10.70;45.60;100219.23;1718771;82;21991;-85
2022/03/22 09:57:05;;;;;;;;;;;;;;;10.81;45.34;100219.64;1714365;82;25452;-85
2022/03/22 09:59:35;;;;;;;;;;;;;;;10.87;45.04;100215.45;1714865;82;25112;-86
2022/03/22 10:02:02;;;;;;;;;;;;;;;10.98;44.81;100213.68;1728005;82;20437;-85
2022/03/22 10:04:36;;;;;;;;;;;;;;;11.03;44.43;100216.50;1727049;82;24729;-85
2022/03/22 10:07:05;;;;;;;;;;;;;;;11.04;44.02;100205.56;1725057;82;22045;-85
2022/03/22 10:09:32;;;;;;;;;;;;;;;11.09;43.73;100206.20;1771260;79;26530;-85
2022/03/22 10:11:58;;;;;;;;;;;;;;;11.15;43.47;100205.94;1767420;79;24479;-85
2022/03/22 10:14:41;;;;;;;;;;;;;;;11.20;43.19;100204.83;1781217;79;20649;-85
2022/03/22 10:23:27;;;;;;;;;;;;;;;11.38;42.49;100195.75;1767599;79;26017;-85
2022/03/22 10:25:55;;;;;;;;;;;;;;;11.53;42.50;100193.74;1775176;79;24472;-85
2022/03/22 10:28:21;;;;;;;;;;;;;;;11.62;42.44;100193.31;1760778;79;20214;-85
2022/03/22 10:30:49;;;;;;;;;;;;;;;11.70;42.24;100195.13;1775590;79;24766;-85
2022/03/22 10:33:17;;;;;;;;;;;;;;;11.77;42.13;100192.66;1770898;79;22056;-85
2022/03/22 10:35:45;;;;;;;;;;;;;;;11.81;41.83;100192.90;1778435;79;26039;-85
2022/03/22 10:38:14;;;;;;;;;;;;;;;11.88;41.63;100194.32;1767665;79;23863;-85
2022/03/22 10:40:40;;;;;;;;;;;;;;;11.89;41.30;100196.00;1779791;79;20213;-85
2022/03/22 10:43:11;;;;;;;;;;;;;;;11.94;41.08;100195.81;1775560;79;24842;-85
2022/03/22 10:45:45;;;;;;;;;;;;;;;12.03;40.90;100183.55;1750404;79;21980;-85
2022/03/22 10:48:26;;;;;;;;;;;;;;;12.10;40.68;100191.53;1783468;79;25803;-85
2022/03/22 10:50:54;;;;;;;;;;;;;;;12.19;40.46;100191.08;1778896;79;25328;-85
2022/03/22 10:53:22;;;;;;;;;;;;;;;12.28;40.31;100184.52;1776536;80;20182;-85
2022/03/22 10:55:48;;;;;;;;;;;;;;;12.35;40.19;100178.90;1774199;80;24727;-85
2022/03/22 10:58:17;;;;;;;;;;;;;;;12.46;40.08;100173.11;1774501;80;21938;-86
2022/03/22 11:00:47;;;;;;;;;;;;;;;12.55;40.00;100175.27;1778949;79;26034;-87
2022/03/22 11:03:17;;;;;;;;;;;;;;;12.60;39.84;100171.95;1775486;80;20341;-86
2022/03/22 11:05:48;;;;;;;;;;;;;;;12.66;39.71;100167.70;1777444;80;20218;-86
2022/03/22 11:08:15;;;;;;;;;;;;;;;12.72;39.45;100162.60;1778211;80;24729;-86
2022/03/22 11:10:41;;;;;;;;;;;;;;;12.71;39.09;100161.75;1779114;79;22048;-86
2022/03/22 11:13:08;;;;;;;;;;;;;;;12.70;38.85;100162.70;1776895;80;26044;-86
2022/03/22 11:15:35;;;;;;;;;;;;;;;12.69;38.65;100159.69;1779505;80;24565;-86
2022/03/22 11:18:03;;;;;;;;;;;;;;;12.72;38.46;100159.52;1776471;80;20198;-86
2022/03/22 11:20:30;;;;;;;;;;;;;;;12.73;38.27;100155.11;1768454;80;25430;-84
2022/03/22 11:23:00;;;;;;;;;;;;;;;12.86;38.28;100156.20;1779207;80;22578;-85
2022/03/22 11:25:35;;;;;;;;;;;;;;;12.94;38.16;100156.63;1773296;79;26014;-85
2022/03/22 11:28:08;;;;;;;;;;;;;;;13.00;38.02;100149.74;1779934;80;24446;-85
2022/03/22 11:30:37;;;;;;;;;;;;;;;13.05;37.85;100145.55;1782141;80;20227;-85
2022/03/22 11:36:01;;;;;;;;;;;;;;;13.10;37.45;100131.23;1775168;80;22867;-85
2022/03/22 11:38:40;;;;;;;;;;;;;;;13.12;37.30;100135.14;1776451;80;25965;-85
2022/03/22 11:43:54;;;;;;;;;;;;;;;13.18;37.04;100122.53;1775800;80;20185;-84
2022/03/22 11:46:22;;;;;;;;;;;;;;;13.21;36.98;100118.87;1773958;80;25463;-85
2022/03/22 11:48:50;;;;;;;;;;;;;;;13.28;36.96;100114.98;1778814;80;22056;-85
2022/03/22 11:51:18;;;;;;;;;;;;;;;13.37;37.03;100112.70;1750633;80;26690;-85
2022/03/22 11:53:44;;;;;;;;;;;;;;;13.51;37.03;100114.59;1731354;81;24572;-85
2022/03/22 11:56:11;;;;;;;;;;;;;;;13.63;36.98;100109.97;1736226;82;21124;-85
2022/03/22 11:58:39;;;;;;;;;;;;;;;13.67;36.78;100112.80;1739895;82;24759;-84
2022/03/22 12:01:09;;;;;;;;;;;;;;;13.73;36.72;100112.93;1735059;81;21982;-86
2022/03/22 12:03:35;;;;;;;;;;;;;;;13.78;36.62;100102.53;1742071;81;26213;-86
2022/03/22 12:06:11;;;;;;;;;;;;;;;13.78;36.50;100102.53;1737288;81;24432;-86
2022/03/22 12:08:37;;;;;;;;;;;;;;;13.89;36.48;100100.61;1734259;82;20312;-86
2022/03/22 12:11:04;;;;;;;;;;;;;;;13.99;36.41;100095.19;1730374;81;24654;-86
2022/03/22 12:13:30;;;;;;;;;;;;;;;14.07;36.39;100096.91;1740222;81;21949;-86
2022/03/22 12:15:57;;;;;;;;;;;;;;;14.08;36.19;100090.70;1737615;81;26210;-86
2022/03/22 12:18:25;;;;;;;;;;;;;;;14.09;36.03;100088.45;1737643;82;24516;-86
2022/03/22 12:20:56;;;;;;;;;;;;;;;14.09;35.86;100084.97;1738211;82;20224;-86
2022/03/22 12:23:22;;;;;;;;;;;;;;;14.12;35.78;100086.98;1733711;82;25306;-86
2022/03/22 12:25:49;;;;;;;;;;;;;;;14.18;35.69;100079.20;1730114;82;21978;-86
2022/03/22 12:28:16;;;;;;;;;;;;;;;14.17;35.45;100080.98;1743792;81;26189;-86
2022/03/22 12:30:42;;;;;;;;;;;;;;;14.21;35.40;100076.37;1737014;82;24427;-85
2022/03/22 12:33:13;;;;;;;;;;;;;;;14.30;35.41;100067.06;1688728;82;20278;-87
2022/03/22 12:35:38;;;;;;;;;;;;;;;14.43;35.35;100068.08;1736991;81;24807;-86
2022/03/22 12:38:05;;;;;;;;;;;;;;;14.47;35.22;100069.12;1740600;81;22057;-86
2022/03/22 12:40:31;;;;;;;;;;;;;;;14.43;35.05;100064.13;1729323;81;26617;-86
2022/03/22 12:42:59;;;;;;;;;;;;;;;14.39;34.90;100056.89;1707492;81;24618;-86
2022/03/22 12:45:28;;;;;;;;;;;;;;;14.40;34.74;100059.88;1726497;82;20569;-85
2022/03/22 12:47:56;;;;;;;;;;;;;;;14.47;34.76;100051.99;1726407;82;24822;-85
2022/03/22 12:50:23;;;;;;;;;;;;;;;14.53;34.71;100053.41;1729308;80;22045;-85
2022/03/22 12:52:55;;;;;;;;;;;;;;;14.59;34.65;100050.41;1781657;80;26062;-85
2022/03/22 12:55:19;;;;;;;;;;;;;;;14.62;34.61;100044.94;1782646;80;24837;-85
2022/03/22 12:57:48;;;;;;;;;;;;;;;14.68;34.57;100041.94;1781171;80;20277;-86
2022/03/22 13:00:27;;;;;;;;;;;;;;;14.80;34.57;100041.20;1784424;80;24916;-86
2022/03/22 13:02:53;;;;;;;;;;;;;;;14.87;34.50;100037.25;1779951;80;21902;-85
2022/03/22 13:05:28;;;;;;;;;;;;;;;14.90;34.37;100041.47;1784916;80;26129;-85
2022/03/22 13:07:56;;;;;;;;;;;;;;;14.85;34.20;100035.17;1777294;80;24608;-85
2022/03/22 13:13:18;;;;;;;;;;;;;;;14.85;34.00;100035.63;1777327;80;25627;-85
2022/03/22 13:15:47;;;;;;;;;;;;;;;14.85;33.88;100031.68;1778710;79;22918;-86
2022/03/22 13:18:13;;;;;;;;;;;;;;;14.87;33.80;100033.77;1782773;80;25973;-86
2022/03/22 13:20:40;;;;;;;;;;;;;;;14.93;33.82;100032.92;1783386;79;24497;-86
2022/03/22 13:23:09;;;;;;;;;;;;;;;15.01;33.81;100025.36;1777888;80;20444;-87
2022/03/22 13:25:36;;;;;;;;;;;;;;;15.14;33.81;100021.96;1782797;80;24846;-85
2022/03/22 13:28:17;;;;;;;;;;;;;;;15.21;33.67;100022.80;1780786;80;21950;-85